createdAt,value
2018-12-08T00:01:56.219Z,3.03
2018-12-08T00:04:25.318Z,3.00
2018-12-08T00:06:54.284Z,2.20
2018-12-08T00:09:23.400Z,2.47
2018-12-08T00:11:52.472Z,3.13
2018-12-08T00:14:21.479Z,2.13
2018-12-08T00:16:50.576Z,2.07
2018-12-08T00:19:19.556Z,2.40
2018-12-08T00:21:48.528Z,1.80
2018-12-08T00:24:17.491Z,2.10
2018-12-08T00:26:46.484Z,2.20
2018-12-08T00:29:15.458Z,1.63
2018-12-08T00:31:45.051Z,2.10
2018-12-08T00:34:14.027Z,1.93
2018-12-08T00:36:43.000Z,1.70
2018-12-08T00:39:11.967Z,2.30
2018-12-08T00:41:40.928Z,1.87
2018-12-08T00:44:09.906Z,1.43
2018-12-08T00:46:39.091Z,1.63
2018-12-08T00:49:08.189Z,1.53
2018-12-08T00:51:37.204Z,1.37
2018-12-08T00:54:07.371Z,0.77
2018-12-08T00:56:36.442Z,0.87
2018-12-08T00:59:05.623Z,1.20
2018-12-08T01:01:34.599Z,0.90
2018-12-08T01:04:03.875Z,1.70
2018-12-08T01:06:32.968Z,1.30
2018-12-08T01:09:02.107Z,1.67
2018-12-08T01:11:31.296Z,4.70
2018-12-08T01:14:00.391Z,1.23
2018-12-08T01:16:29.627Z,1.33
2018-12-08T01:18:58.716Z,1.63
2018-12-08T01:21:27.800Z,1.17
2018-12-08T01:23:56.935Z,1.10
2018-12-08T01:26:25.900Z,1.30
2018-12-08T01:28:55.080Z,2.20
2018-12-08T01:31:24.206Z,1.53
2018-12-08T01:33:53.171Z,1.90
2018-12-08T01:36:22.143Z,1.67
2018-12-08T01:38:51.112Z,2.30
2018-12-08T01:41:20.011Z,1.80
2018-12-08T01:43:48.919Z,1.60
2018-12-08T01:46:17.875Z,1.70
2018-12-08T01:48:46.844Z,1.83
2018-12-08T01:51:15.747Z,1.57
2018-12-08T01:53:44.657Z,1.73
2018-12-08T01:56:13.565Z,1.50
2018-12-08T01:58:42.459Z,1.73
2018-12-08T02:01:11.439Z,1.67
2018-12-08T02:03:40.361Z,1.97
2018-12-08T02:06:09.327Z,2.17
2018-12-08T02:08:38.303Z,2.07
2018-12-08T02:11:07.323Z,2.10
2018-12-08T02:13:36.215Z,2.30
2018-12-08T02:16:05.191Z,3.93
2018-12-08T02:18:34.330Z,1.93
2018-12-08T02:21:03.412Z,1.97
2018-12-08T02:23:32.373Z,2.10
2018-12-08T02:26:01.315Z,1.60
2018-12-08T02:28:30.288Z,1.87
2018-12-08T02:30:59.380Z,2.10
2018-12-08T02:33:28.382Z,1.77
2018-12-08T02:35:57.268Z,1.40
2018-12-08T02:38:26.371Z,1.60
2018-12-08T02:40:55.335Z,2.00
2018-12-08T02:43:24.244Z,2.03
2018-12-08T02:45:53.207Z,1.90
2018-12-08T02:48:22.159Z,1.50
2018-12-08T02:50:51.062Z,1.73
2018-12-08T02:53:20.030Z,1.60
2018-12-08T02:55:48.995Z,1.50
2018-12-08T02:58:17.903Z,1.73
2018-12-08T03:00:46.807Z,1.30
2018-12-08T03:03:15.799Z,1.50
2018-12-08T03:05:44.879Z,1.50
2018-12-08T03:08:13.856Z,1.20
2018-12-08T03:10:43.013Z,1.10
2018-12-08T03:13:11.993Z,1.40
2018-12-08T03:15:40.891Z,1.40
2018-12-08T03:18:09.814Z,1.30
2018-12-08T03:20:38.711Z,1.27
2018-12-08T03:23:07.608Z,1.57
2018-12-08T03:25:36.697Z,1.60
2018-12-08T03:28:05.776Z,1.70
2018-12-08T03:30:34.874Z,1.27
2018-12-08T03:33:03.837Z,1.50
2018-12-08T03:35:33.055Z,1.43
2018-12-08T03:38:02.161Z,1.83
2018-12-08T03:40:31.341Z,1.40
2018-12-08T03:43:00.452Z,1.60
2018-12-08T03:45:29.536Z,1.60
2018-12-08T03:47:58.612Z,1.90
2018-12-08T03:50:27.627Z,1.47
2018-12-08T03:52:56.595Z,1.20
2018-12-08T03:55:25.505Z,0.93
2018-12-08T03:57:54.567Z,1.07
2018-12-08T04:00:23.558Z,0.90
2018-12-08T04:02:52.636Z,0.70
2018-12-08T04:05:21.604Z,0.70
2018-12-08T04:07:50.591Z,0.33
2018-12-08T04:10:19.782Z,0.40
2018-12-08T04:12:48.752Z,0.50
2018-12-08T04:15:17.828Z,0.30
2018-12-08T04:17:46.900Z,0.20
2018-12-08T04:20:15.923Z,0.40
2018-12-08T04:22:44.897Z,0.20
2018-12-08T04:25:13.868Z,0.30
2018-12-08T04:27:42.969Z,0.30
2018-12-08T04:30:12.019Z,0.20
2018-12-08T04:32:40.980Z,0.30
2018-12-08T04:35:09.900Z,0.30
2018-12-08T04:37:39.380Z,0.10
2018-12-08T04:40:08.607Z,0.30
2018-12-08T04:42:37.727Z,0.20
2018-12-08T04:45:06.811Z,0.30
2018-12-08T04:47:35.803Z,0.30
2018-12-08T04:50:05.048Z,0.20
2018-12-08T04:52:34.032Z,0.20
2018-12-08T04:55:03.195Z,0.20
2018-12-08T04:57:32.087Z,0.20
2018-12-08T05:00:01.036Z,0.30
2018-12-08T05:02:30.012Z,0.20
2018-12-08T05:04:58.919Z,0.20
2018-12-08T05:07:27.811Z,0.20
2018-12-08T05:09:56.798Z,0.30
2018-12-08T05:12:25.875Z,0.50
2018-12-08T05:14:55.231Z,0.30
2018-12-08T05:17:24.191Z,0.30
2018-12-08T05:19:53.167Z,0.40
2018-12-08T05:22:22.195Z,0.20
2018-12-08T05:24:51.158Z,0.47
2018-12-08T05:27:20.123Z,0.40
2018-12-08T05:29:49.037Z,0.20
2018-12-08T05:32:18.012Z,0.40
2018-12-08T05:34:47.099Z,0.30
2018-12-08T05:37:16.074Z,0.40
2018-12-08T05:39:45.175Z,0.50
2018-12-08T05:42:14.276Z,0.40
2018-12-08T05:44:43.243Z,0.40
2018-12-08T05:47:12.191Z,1.10
2018-12-08T05:49:41.379Z,0.60
2018-12-08T05:52:10.364Z,0.60
2018-12-08T05:54:39.304Z,0.70
2018-12-08T05:57:08.404Z,0.60
2018-12-08T05:59:37.379Z,0.50
2018-12-08T06:02:07.175Z,0.90
2018-12-08T06:04:36.282Z,0.60
2018-12-08T06:07:05.259Z,0.60
2018-12-08T06:09:34.239Z,0.63
2018-12-08T06:12:03.148Z,0.50
2018-12-08T06:14:32.831Z,0.80
2018-12-08T06:17:01.804Z,0.60
2018-12-08T06:19:30.699Z,0.80
2018-12-08T06:21:59.603Z,0.50
2018-12-08T06:24:28.702Z,0.47
2018-12-08T06:26:57.672Z,0.40
2018-12-08T06:29:26.644Z,0.30
2018-12-08T06:31:55.617Z,0.27
2018-12-08T06:34:24.595Z,0.40
2018-12-08T06:36:53.694Z,0.60
2018-12-08T06:39:22.660Z,0.40
2018-12-08T06:41:51.628Z,0.50
2018-12-08T06:44:20.573Z,0.40
2018-12-08T06:46:49.655Z,0.30
2018-12-08T06:49:18.620Z,0.40
2018-12-08T06:51:47.527Z,0.30
2018-12-08T06:54:16.524Z,0.30
2018-12-08T06:56:45.507Z,0.40
2018-12-08T06:59:14.411Z,0.33
2018-12-08T07:01:43.380Z,0.30
2018-12-08T07:04:12.353Z,0.40
2018-12-08T07:06:41.334Z,0.40
2018-12-08T07:09:10.227Z,0.37
2018-12-08T07:11:39.119Z,1.00
2018-12-08T07:14:08.217Z,0.20
2018-12-08T07:16:37.211Z,0.30
2018-12-08T07:19:06.120Z,0.30
2018-12-08T07:21:35.095Z,0.30
2018-12-08T07:24:04.009Z,0.30
2018-12-08T07:26:33.090Z,0.30
2018-12-08T07:29:02.171Z,0.20
2018-12-08T07:31:31.299Z,0.37
2018-12-08T07:34:00.379Z,0.60
2018-12-08T07:36:29.477Z,0.30
2018-12-08T07:38:58.587Z,0.20
2018-12-08T07:41:27.683Z,0.40
2018-12-08T07:43:56.645Z,0.43
2018-12-08T07:46:25.739Z,0.30
2018-12-08T07:48:54.917Z,0.30
2018-12-08T07:51:23.808Z,0.30
2018-12-08T07:53:52.828Z,0.20
2018-12-08T07:56:21.788Z,0.40
2018-12-08T07:58:50.776Z,0.30
2018-12-08T08:01:19.759Z,0.50
2018-12-08T08:03:49.059Z,0.30
2018-12-08T08:06:18.171Z,0.30
2018-12-08T08:08:47.151Z,0.30
2018-12-08T08:11:16.248Z,0.30
2018-12-08T08:13:45.203Z,0.30
2018-12-08T08:16:14.187Z,0.40
2018-12-08T08:18:43.160Z,0.33
2018-12-08T08:21:12.163Z,0.60
2018-12-08T08:23:41.247Z,0.33
2018-12-08T08:26:10.335Z,0.40
2018-12-08T08:28:39.295Z,0.40
2018-12-08T08:31:08.511Z,0.47
2018-12-08T08:33:37.592Z,0.63
2018-12-08T08:36:06.687Z,0.50
2018-12-08T08:38:35.792Z,0.40
2018-12-08T08:41:04.692Z,0.30
2018-12-08T08:43:33.686Z,0.40
2018-12-08T08:46:03.483Z,0.80
2018-12-08T08:48:33.211Z,0.20
2018-12-08T08:51:02.295Z,0.30
2018-12-08T08:53:31.994Z,0.30
2018-12-08T08:56:00.960Z,0.30
2018-12-08T08:58:29.939Z,0.20
2018-12-08T09:00:58.831Z,0.60
2018-12-08T09:03:28.040Z,0.20
2018-12-08T09:05:57.004Z,0.30
2018-12-08T09:08:25.931Z,0.10
2018-12-08T09:10:54.835Z,0.20
2018-12-08T09:13:23.815Z,0.23
2018-12-08T09:15:52.775Z,0.70
2018-12-08T09:18:21.739Z,0.30
2018-12-08T09:20:50.772Z,0.30
2018-12-08T09:23:19.747Z,0.30
2018-12-08T09:25:48.711Z,0.60
2018-12-08T09:28:17.872Z,0.60
2018-12-08T09:30:46.772Z,2.00
2018-12-08T09:33:15.864Z,1.30
2018-12-08T09:35:44.974Z,0.60
2018-12-08T09:38:13.968Z,0.40
2018-12-08T09:40:43.059Z,0.57
2018-12-08T09:43:12.139Z,0.57
2018-12-08T09:45:41.973Z,0.53
2018-12-08T09:48:11.167Z,0.50
2018-12-08T09:50:40.147Z,0.57
2018-12-08T09:53:16.140Z,0.50
2018-12-08T09:55:45.111Z,0.50
2018-12-08T09:58:14.007Z,0.50
2018-12-08T10:00:42.907Z,0.80
2018-12-08T10:03:11.880Z,0.40
2018-12-08T10:05:40.979Z,0.60
2018-12-08T10:08:10.075Z,0.60
2018-12-08T10:10:38.981Z,0.47
2018-12-08T10:13:08.068Z,0.80
2018-12-08T10:15:37.250Z,0.67
2018-12-08T10:18:06.147Z,0.70
2018-12-08T10:20:35.221Z,0.40
2018-12-08T10:23:04.311Z,0.40
2018-12-08T10:25:33.391Z,0.50
2018-12-08T10:28:02.383Z,0.40
2018-12-08T10:30:31.457Z,0.50
2018-12-08T10:33:00.545Z,0.50
2018-12-08T10:35:29.524Z,0.47
2018-12-08T10:37:58.527Z,0.60
2018-12-08T10:40:27.521Z,0.50
2018-12-08T10:42:56.620Z,0.43
2018-12-08T10:45:25.719Z,0.47
2018-12-08T10:47:54.699Z,0.30
2018-12-08T10:50:23.708Z,0.60
2018-12-08T10:52:52.791Z,0.20
2018-12-08T10:55:21.895Z,0.47
2018-12-08T10:57:50.791Z,0.40
2018-12-08T11:03:26.787Z,0.30
2018-12-08T11:05:55.872Z,0.20
2018-12-08T11:08:24.985Z,0.30
2018-12-08T11:10:53.880Z,0.20
2018-12-08T11:13:23.026Z,0.30
2018-12-08T11:15:52.031Z,0.30
2018-12-08T11:18:20.934Z,0.40
2018-12-08T11:20:49.907Z,0.30
2018-12-08T11:23:18.876Z,0.40
2018-12-08T11:25:47.983Z,0.30
2018-12-08T11:28:16.887Z,0.20
2018-12-08T11:30:45.842Z,0.40
2018-12-08T11:33:14.764Z,0.40
2018-12-08T11:35:43.691Z,0.40
2018-12-08T11:38:12.592Z,0.50
2018-12-08T11:40:41.487Z,0.37
2018-12-08T11:43:10.671Z,0.47
2018-12-08T11:45:39.635Z,0.40
2018-12-08T11:48:08.536Z,0.40
2018-12-08T11:50:37.472Z,0.40
2018-12-08T11:53:06.372Z,0.50
2018-12-08T11:55:35.328Z,0.47
2018-12-08T11:58:04.307Z,0.30
2018-12-08T12:00:33.252Z,0.43
2018-12-08T12:03:02.362Z,0.40
2018-12-08T12:05:31.584Z,0.50
2018-12-08T12:08:00.564Z,0.50
2018-12-08T12:10:29.541Z,0.40
2018-12-08T12:12:58.504Z,0.50
2018-12-08T12:15:27.608Z,0.47
2018-12-08T12:17:56.572Z,0.77
2018-12-08T12:20:25.540Z,0.50
2018-12-08T12:22:54.555Z,0.67
2018-12-08T12:25:23.747Z,0.77
2018-12-08T12:27:52.835Z,1.10
2018-12-08T12:30:22.011Z,0.63
2018-12-08T12:32:51.039Z,1.20
2018-12-08T12:35:20.004Z,1.40
2018-12-08T12:37:49.091Z,1.93
2018-12-08T12:40:18.378Z,5.30
2018-12-08T12:42:47.621Z,1.73
2018-12-08T12:45:17.099Z,1.70
2018-12-08T12:47:46.309Z,1.33
2018-12-08T12:50:15.509Z,1.00
2018-12-08T12:52:44.569Z,1.10
2018-12-08T12:55:13.555Z,1.03
2018-12-08T12:57:42.452Z,0.70
2018-12-08T13:00:12.171Z,0.83
2018-12-08T13:02:41.252Z,1.30
2018-12-08T13:05:10.158Z,1.00
2018-12-08T13:07:39.131Z,0.93
2018-12-08T13:10:08.115Z,1.07
2018-12-08T13:12:37.063Z,1.07
2018-12-08T13:15:06.170Z,1.77
2018-12-08T13:17:35.260Z,1.40
2018-12-08T13:20:04.575Z,1.37
2018-12-08T13:22:33.551Z,0.80
2018-12-08T13:25:14.163Z,1.23
2018-12-08T13:27:43.147Z,1.00
2018-12-08T13:30:12.140Z,1.40
2018-12-08T13:32:41.042Z,1.27
2018-12-08T13:35:13.922Z,1.40
2018-12-08T13:37:42.896Z,1.53
2018-12-08T13:40:11.965Z,1.57
2018-12-08T13:42:40.944Z,1.50
2018-12-08T13:45:16.440Z,1.77
2018-12-08T13:47:45.441Z,1.33
2018-12-08T13:50:14.715Z,2.03
2018-12-08T13:52:43.831Z,1.90
2018-12-08T13:55:13.015Z,1.97
2018-12-08T13:57:42.010Z,1.57
2018-12-08T14:00:10.983Z,2.30
2018-12-08T14:02:39.960Z,3.37
2018-12-08T14:05:09.071Z,3.60
2018-12-08T14:07:38.327Z,5.97
2018-12-08T14:10:08.729Z,3.00
2018-12-08T14:12:38.065Z,2.97
2018-12-08T14:15:07.210Z,2.23
2018-12-08T14:17:36.323Z,2.40
2018-12-08T14:20:16.211Z,1.77
2018-12-08T14:22:45.202Z,1.97
2018-12-08T14:25:14.172Z,1.60
2018-12-08T14:27:43.275Z,2.17
2018-12-08T14:30:12.349Z,2.17
2018-12-08T14:32:41.323Z,1.50
2018-12-08T14:35:10.223Z,2.20
2018-12-08T14:37:39.187Z,2.20
2018-12-08T14:40:08.341Z,2.20
2018-12-08T14:42:37.503Z,1.83
2018-12-08T14:45:14.402Z,1.77
2018-12-08T14:47:43.631Z,5.27
2018-12-08T14:50:12.769Z,2.13
2018-12-08T14:52:41.716Z,1.83
2018-12-08T14:55:10.726Z,1.80
2018-12-08T14:57:39.708Z,2.10
2018-12-08T15:00:08.936Z,1.73
2018-12-08T15:02:37.916Z,1.90
2018-12-08T15:05:07.211Z,1.93
2018-12-08T15:07:36.287Z,2.07
2018-12-08T15:10:06.272Z,2.13
2018-12-08T15:12:35.381Z,1.77
2018-12-08T15:15:04.639Z,2.10
2018-12-08T15:17:33.624Z,6.20
2018-12-08T15:20:02.856Z,2.63
2018-12-08T15:22:31.988Z,1.90
2018-12-08T15:25:01.194Z,2.60
2018-12-08T15:27:30.487Z,2.17
2018-12-08T15:29:59.599Z,3.23
2018-12-08T15:32:28.791Z,2.97
2018-12-08T15:34:57.807Z,1.93
2018-12-08T15:37:26.887Z,2.80
2018-12-08T15:39:56.028Z,2.23
2018-12-08T15:42:25.120Z,2.40
2018-12-08T15:44:54.211Z,2.20
2018-12-08T15:47:23.403Z,2.70
2018-12-08T15:49:52.587Z,4.83
2018-12-08T15:52:21.884Z,3.47
2018-12-08T15:54:51.028Z,4.57
2018-12-08T15:57:20.112Z,3.60
2018-12-08T15:59:49.256Z,7.40
2018-12-08T16:02:18.355Z,3.07
2018-12-08T16:04:47.547Z,4.83
2018-12-08T16:07:16.681Z,3.63
2018-12-08T16:09:45.729Z,4.23
2018-12-08T16:12:14.728Z,3.33
2018-12-08T16:14:44.500Z,3.50
2018-12-08T16:17:13.663Z,3.47
2018-12-08T16:19:42.847Z,2.90
2018-12-08T16:22:11.823Z,2.70
2018-12-08T16:24:40.815Z,4.30
2018-12-08T16:27:10.000Z,3.37
2018-12-08T16:29:39.109Z,2.97
2018-12-08T16:32:08.092Z,2.93
2018-12-08T16:34:37.029Z,2.40
2018-12-08T16:37:06.237Z,3.20
2018-12-08T16:39:35.431Z,3.73
2018-12-08T16:42:04.551Z,2.37
2018-12-08T16:44:34.044Z,2.93
2018-12-08T16:47:03.259Z,2.50
2018-12-08T16:49:32.340Z,2.73
2018-12-08T16:52:01.491Z,2.97
2018-12-08T16:54:30.464Z,2.40
2018-12-08T16:56:59.584Z,2.40
2018-12-08T16:59:28.663Z,2.37
2018-12-08T17:01:57.654Z,2.63
2018-12-08T17:04:26.771Z,2.53
2018-12-08T17:06:55.895Z,2.67
2018-12-08T17:09:24.803Z,2.70
2018-12-08T17:11:53.780Z,2.63
2018-12-08T17:14:22.698Z,2.47
2018-12-08T17:16:51.793Z,2.23
2018-12-08T17:19:20.776Z,2.27
2018-12-08T17:21:49.859Z,2.40
2018-12-08T17:24:18.857Z,2.60
2018-12-08T17:26:48.675Z,2.50
2018-12-08T17:29:17.875Z,1.50
2018-12-08T17:31:46.843Z,2.00
2018-12-08T17:34:15.811Z,2.23
2018-12-08T17:36:44.791Z,2.30
2018-12-08T17:39:13.891Z,1.80
2018-12-08T17:41:42.999Z,2.10
2018-12-08T17:44:12.112Z,2.23
2018-12-08T17:46:41.325Z,2.37
2018-12-08T17:49:10.416Z,2.17
2018-12-08T17:51:39.708Z,1.90
2018-12-08T17:54:08.715Z,1.60
2018-12-08T17:56:37.687Z,2.17
2018-12-08T17:59:06.653Z,1.87
2018-12-08T18:01:35.611Z,1.70
2018-12-08T18:04:04.579Z,2.20
2018-12-08T18:06:33.683Z,1.67
2018-12-08T18:09:03.965Z,2.47
2018-12-08T18:11:32.941Z,2.17
2018-12-08T18:14:02.107Z,1.57
2018-12-08T18:16:31.166Z,1.90
2018-12-08T18:19:00.124Z,1.70
2018-12-08T18:21:29.114Z,2.30
2018-12-08T18:23:58.007Z,1.53
2018-12-08T18:26:26.929Z,1.50
2018-12-08T18:28:56.052Z,1.33
2018-12-08T18:31:25.567Z,1.50
2018-12-08T18:33:54.644Z,1.10
2018-12-08T18:36:23.828Z,1.53
2018-12-08T18:38:53.005Z,1.07
2018-12-08T18:41:22.160Z,1.10
2018-12-08T18:43:51.223Z,1.47
2018-12-08T18:46:20.153Z,1.43
2018-12-08T18:48:49.132Z,0.90
2018-12-08T18:51:18.043Z,1.07
2018-12-08T18:53:47.023Z,0.90
2018-12-08T18:56:15.999Z,0.80
2018-12-08T18:58:44.900Z,0.50
2018-12-08T19:01:14.012Z,0.70
2018-12-08T19:03:43.153Z,0.30
2018-12-08T19:06:12.121Z,0.67
2018-12-08T19:08:41.250Z,0.60
2018-12-08T19:11:10.148Z,0.40
2018-12-08T19:13:39.289Z,0.60
2018-12-08T19:16:08.381Z,0.60
2018-12-08T19:18:37.280Z,0.70
2018-12-08T19:21:06.271Z,0.80
2018-12-08T19:23:35.237Z,0.83
2018-12-08T19:26:04.331Z,0.50
2018-12-08T19:28:33.408Z,0.47
2018-12-08T19:31:02.315Z,1.30
2018-12-08T19:33:31.973Z,0.83
2018-12-08T19:36:00.931Z,0.40
2018-12-08T19:38:30.020Z,0.33
2018-12-08T19:40:58.999Z,1.10
2018-12-08T19:43:28.087Z,0.40
2018-12-08T19:45:57.863Z,0.50
2018-12-08T19:48:26.910Z,0.57
2018-12-08T19:50:55.995Z,0.50
2018-12-08T19:53:25.095Z,0.40
2018-12-08T19:55:54.063Z,0.50
2018-12-08T19:58:22.980Z,0.37
2018-12-08T20:00:51.945Z,0.40
2018-12-08T20:03:20.944Z,0.30
2018-12-08T20:05:49.914Z,0.40
2018-12-08T20:08:18.804Z,0.80
2018-12-08T20:10:47.926Z,0.60
2018-12-08T20:13:16.981Z,0.53
2018-12-08T20:15:45.924Z,0.47
2018-12-08T20:18:15.020Z,0.80
2018-12-08T20:20:44.324Z,0.70
2018-12-08T20:23:13.291Z,0.70
2018-12-08T20:25:42.271Z,0.50
2018-12-08T20:28:11.400Z,0.53
2018-12-08T20:30:40.447Z,0.80
2018-12-08T20:33:09.467Z,0.43
2018-12-08T20:35:38.960Z,0.73
2018-12-08T20:38:07.931Z,0.60
2018-12-08T20:40:36.919Z,0.57
2018-12-08T20:43:05.879Z,0.30
2018-12-08T20:45:34.909Z,0.60
2018-12-08T20:48:03.999Z,0.30
2018-12-08T20:50:33.091Z,0.50
2018-12-08T20:53:02.068Z,0.40
2018-12-08T20:55:31.157Z,0.67
2018-12-08T20:58:00.259Z,0.37
2018-12-08T21:00:29.363Z,0.40
2018-12-08T21:02:58.327Z,0.60
2018-12-08T21:05:27.419Z,0.47
2018-12-08T21:07:56.442Z,0.60
2018-12-08T21:10:25.725Z,0.80
2018-12-08T21:12:54.640Z,0.30
2018-12-08T21:15:23.747Z,0.40
2018-12-08T21:17:52.763Z,0.50
2018-12-08T21:20:21.885Z,0.40
2018-12-08T21:22:50.888Z,0.50
2018-12-08T21:25:19.995Z,0.40
2018-12-08T21:27:48.996Z,0.43
2018-12-08T21:30:18.200Z,0.40
2018-12-08T21:32:47.112Z,0.40
2018-12-08T21:35:16.069Z,0.60
2018-12-08T21:37:45.107Z,0.90
2018-12-08T21:40:20.795Z,0.60
2018-12-08T21:42:50.156Z,0.60
2018-12-08T21:45:19.139Z,0.67
2018-12-08T21:47:48.179Z,0.90
2018-12-08T21:50:17.187Z,1.00
2018-12-08T21:52:46.169Z,1.17
2018-12-08T21:55:15.087Z,1.20
2018-12-08T21:57:44.064Z,0.87
2018-12-08T22:00:13.074Z,0.93
2018-12-08T22:02:42.158Z,1.00
2018-12-08T22:05:11.081Z,1.07
2018-12-08T22:07:40.067Z,1.20
2018-12-08T22:10:09.168Z,1.10
2018-12-08T22:12:38.139Z,1.07
2018-12-08T22:15:09.199Z,1.10
2018-12-08T22:17:38.131Z,1.00
2018-12-08T22:20:07.427Z,0.87
2018-12-08T22:22:36.399Z,1.00
2018-12-08T22:25:05.511Z,1.00
2018-12-08T22:27:34.623Z,1.23
2018-12-08T22:30:04.436Z,1.03
2018-12-08T22:32:33.356Z,1.30
2018-12-08T22:35:02.331Z,1.13
2018-12-08T22:37:31.346Z,1.57
2018-12-08T22:40:00.512Z,1.40
2018-12-08T22:42:29.499Z,1.80
2018-12-08T22:44:58.611Z,1.57
2018-12-08T22:47:27.619Z,1.80
2018-12-08T22:49:56.592Z,1.50
2018-12-08T22:52:25.687Z,2.40
2018-12-08T22:54:54.671Z,2.03
2018-12-08T22:57:23.683Z,2.07
2018-12-08T22:59:52.680Z,1.73
2018-12-08T23:02:21.667Z,2.27
2018-12-08T23:04:50.668Z,2.17
2018-12-08T23:07:19.676Z,1.93
2018-12-08T23:09:48.586Z,2.23
2018-12-08T23:12:17.601Z,1.63
2018-12-08T23:14:46.695Z,2.07
2018-12-08T23:17:15.803Z,1.67
2018-12-08T23:19:44.708Z,1.77
2018-12-08T23:22:13.692Z,1.80
2018-12-08T23:24:42.786Z,1.33
2018-12-08T23:27:11.920Z,1.30
2018-12-08T23:29:40.852Z,1.20
2018-12-08T23:32:09.771Z,1.20
2018-12-08T23:34:38.911Z,1.50
2018-12-08T23:37:08.274Z,1.33
2018-12-08T23:39:39.150Z,1.50
2018-12-08T23:42:08.638Z,2.03
2018-12-08T23:44:37.613Z,2.20
2018-12-08T23:47:06.581Z,2.10
2018-12-08T23:49:35.623Z,2.43
2018-12-08T23:52:04.696Z,2.40
2018-12-08T23:54:33.615Z,2.43
2018-12-08T23:57:02.515Z,2.67
2018-12-08T23:59:31.667Z,2.40
